Saldanha, South Africa
Current Conditions -  °F | °C
As of 3:00 AM on Monday 22 Dec 2014 (Local Time) from FACT Reporting Station
Broken Clouds Broken Clouds  
Wind Chill: 66°   Ceiling: 3900
Heat Index: 66°   Visibility: 6mi
Dew Point: 59°   Wind: 6mph
Humidity: 78%   Direction: 210°SSW
Pressure: 30"   Gusts: NA
Location:  33.01°S, 17.93°E
Report Text: FACT 220100Z 21005KT 9999 BKN039 19/15 Q1016 NOSIG
Loading
Personal Weather Stations






























Interactive Weather Map New forecast layout! Learn more

10-Day Weather Forecast

Advertisements
Track Severe Weather on mobile